sensor_id;sensor_type;location;lat;lon;timestamp;temperature;humidity
15543;DHT22;7873;52.230;12.856;2023-06-14T00:00:07;23.90;41.60
15543;DHT22;7873;52.230;12.856;2023-06-14T00:02:35;23.90;41.60
15543;DHT22;7873;52.230;12.856;2023-06-14T00:05:02;23.90;41.60
15543;DHT22;7873;52.230;12.856;2023-06-14T00:07:36;23.80;41.60
15543;DHT22;7873;52.230;12.856;2023-06-14T00:10:07;23.80;41.70
15543;DHT22;7873;52.230;12.856;2023-06-14T00:12:35;23.80;41.60
15543;DHT22;7873;52.230;12.856;2023-06-14T00:15:02;23.80;41.70
15543;DHT22;7873;52.230;12.856;2023-06-14T00:17:29;23.80;41.70
15543;DHT22;7873;52.230;12.856;2023-06-14T00:19:58;23.80;41.70
15543;DHT22;7873;52.230;12.856;2023-06-14T00:22:25;23.80;41.70
15543;DHT22;7873;52.230;12.856;2023-06-14T00:24:53;23.80;41.70
15543;DHT22;7873;52.230;12.856;2023-06-14T00:27:20;23.80;41.70
15543;DHT22;7873;52.230;12.856;2023-06-14T00:29:47;23.70;41.70
15543;DHT22;7873;52.230;12.856;2023-06-14T00:32:13;23.80;41.70
15543;DHT22;7873;52.230;12.856;2023-06-14T00:34:40;23.80;41.70
15543;DHT22;7873;52.230;12.856;2023-06-14T00:37:08;23.70;41.70
15543;DHT22;7873;52.230;12.856;2023-06-14T00:39:35;23.80;41.90
15543;DHT22;7873;52.230;12.856;2023-06-14T00:42:01;23.70;41.70
15543;DHT22;7873;52.230;12.856;2023-06-14T00:44:28;23.70;41.70
15543;DHT22;7873;52.230;12.856;2023-06-14T00:46:55;23.70;41.70
15543;DHT22;7873;52.230;12.856;2023-06-14T00:49:21;23.70;41.80
15543;DHT22;7873;52.230;12.856;2023-06-14T00:51:48;23.70;41.90
15543;DHT22;7873;52.230;12.856;2023-06-14T00:54:16;23.70;41.90
15543;DHT22;7873;52.230;12.856;2023-06-14T00:56:43;23.70;42.00
15543;DHT22;7873;52.230;12.856;2023-06-14T00:59:10;23.60;41.90
15543;DHT22;7873;52.230;12.856;2023-06-14T01:01:37;23.70;41.90
15543;DHT22;7873;52.230;12.856;2023-06-14T01:04:04;23.60;41.90
15543;DHT22;7873;52.230;12.856;2023-06-14T01:06:32;23.60;41.90
15543;DHT22;7873;52.230;12.856;2023-06-14T01:09:10;23.60;41.90
15543;DHT22;7873;52.230;12.856;2023-06-14T01:11:47;23.60;42.00
15543;DHT22;7873;52.230;12.856;2023-06-14T01:14:19;23.60;42.00
15543;DHT22;7873;52.230;12.856;2023-06-14T01:16:47;23.60;42.10
15543;DHT22;7873;52.230;12.856;2023-06-14T01:19:18;23.60;42.00
15543;DHT22;7873;52.230;12.856;2023-06-14T01:21:48;23.60;42.00
15543;DHT22;7873;52.230;12.856;2023-06-14T01:24:17;23.60;42.00
15543;DHT22;7873;52.230;12.856;2023-06-14T01:26:45;23.60;41.90
15543;DHT22;7873;52.230;12.856;2023-06-14T01:29:16;23.60;42.00
15543;DHT22;7873;52.230;12.856;2023-06-14T01:31:44;23.60;42.00
15543;DHT22;7873;52.230;12.856;2023-06-14T01:34:12;23.60;42.10
15543;DHT22;7873;52.230;12.856;2023-06-14T01:36:40;23.60;42.10
15543;DHT22;7873;52.230;12.856;2023-06-14T01:39:07;23.50;42.10
15543;DHT22;7873;52.230;12.856;2023-06-14T01:41:37;23.60;42.10
15543;DHT22;7873;52.230;12.856;2023-06-14T01:44:04;23.60;42.10
15543;DHT22;7873;52.230;12.856;2023-06-14T01:46:31;23.50;42.10
15543;DHT22;7873;52.230;12.856;2023-06-14T01:48:58;23.50;42.20
15543;DHT22;7873;52.230;12.856;2023-06-14T01:51:25;23.50;42.10
15543;DHT22;7873;52.230;12.856;2023-06-14T01:53:52;23.50;42.10
15543;DHT22;7873;52.230;12.856;2023-06-14T01:56:18;23.60;42.10
15543;DHT22;7873;52.230;12.856;2023-06-14T01:58:48;23.50;42.20
15543;DHT22;7873;52.230;12.856;2023-06-14T02:01:15;23.50;42.20
15543;DHT22;7873;52.230;12.856;2023-06-14T02:03:42;23.50;42.30
15543;DHT22;7873;52.230;12.856;2023-06-14T02:06:10;23.50;42.30
15543;DHT22;7873;52.230;12.856;2023-06-14T02:08:37;23.50;42.30
15543;DHT22;7873;52.230;12.856;2023-06-14T02:11:04;23.50;42.30
15543;DHT22;7873;52.230;12.856;2023-06-14T02:13:31;23.50;42.30
15543;DHT22;7873;52.230;12.856;2023-06-14T02:15:59;23.50;42.30
15543;DHT22;7873;52.230;12.856;2023-06-14T02:18:25;23.50;42.30
15543;DHT22;7873;52.230;12.856;2023-06-14T02:20:52;23.50;42.20
15543;DHT22;7873;52.230;12.856;2023-06-14T02:23:19;23.50;42.30
15543;DHT22;7873;52.230;12.856;2023-06-14T02:25:46;23.50;42.30
15543;DHT22;7873;52.230;12.856;2023-06-14T02:28:12;23.50;42.30
15543;DHT22;7873;52.230;12.856;2023-06-14T02:30:39;23.50;42.30
15543;DHT22;7873;52.230;12.856;2023-06-14T02:33:07;23.50;42.40
15543;DHT22;7873;52.230;12.856;2023-06-14T02:35:37;23.40;42.40
15543;DHT22;7873;52.230;12.856;2023-06-14T02:38:04;23.40;42.50
15543;DHT22;7873;52.230;12.856;2023-06-14T02:40:30;23.40;42.50
15543;DHT22;7873;52.230;12.856;2023-06-14T02:42:57;23.40;42.50
15543;DHT22;7873;52.230;12.856;2023-06-14T02:45:24;23.50;42.40
15543;DHT22;7873;52.230;12.856;2023-06-14T02:47:50;23.50;42.40
15543;DHT22;7873;52.230;12.856;2023-06-14T02:50:19;23.50;42.50
15543;DHT22;7873;52.230;12.856;2023-06-14T02:52:46;23.50;42.20
15543;DHT22;7873;52.230;12.856;2023-06-14T02:55:13;23.60;42.10
15543;DHT22;7873;52.230;12.856;2023-06-14T02:57:40;23.50;42.30
15543;DHT22;7873;52.230;12.856;2023-06-14T03:00:07;23.50;42.50
15543;DHT22;7873;52.230;12.856;2023-06-14T03:02:38;23.60;42.20
15543;DHT22;7873;52.230;12.856;2023-06-14T03:05:05;23.80;41.90
15543;DHT22;7873;52.230;12.856;2023-06-14T03:07:35;23.70;41.90
15543;DHT22;7873;52.230;12.856;2023-06-14T03:10:07;23.70;42.00
15543;DHT22;7873;52.230;12.856;2023-06-14T03:12:34;23.70;41.90
15543;DHT22;7873;52.230;12.856;2023-06-14T03:15:02;23.80;41.80
15543;DHT22;7873;52.230;12.856;2023-06-14T03:17:29;23.90;41.60
15543;DHT22;7873;52.230;12.856;2023-06-14T03:19:58;23.90;41.50
15543;DHT22;7873;52.230;12.856;2023-06-14T03:22:25;24.00;41.50
15543;DHT22;7873;52.230;12.856;2023-06-14T03:24:53;24.00;41.50
15543;DHT22;7873;52.230;12.856;2023-06-14T03:27:20;24.00;41.40
15543;DHT22;7873;52.230;12.856;2023-06-14T03:29:47;24.10;41.80
15543;DHT22;7873;52.230;12.856;2023-06-14T03:32:13;23.70;41.50
15543;DHT22;7873;52.230;12.856;2023-06-14T03:34:40;23.30;42.20
15543;DHT22;7873;52.230;12.856;2023-06-14T03:37:07;22.90;43.00
15543;DHT22;7873;52.230;12.856;2023-06-14T03:39:34;22.70;43.70
15543;DHT22;7873;52.230;12.856;2023-06-14T03:42:03;22.50;44.30
15543;DHT22;7873;52.230;12.856;2023-06-14T03:44:30;22.50;44.40
15543;DHT22;7873;52.230;12.856;2023-06-14T03:46:57;22.60;44.30
15543;DHT22;7873;52.230;12.856;2023-06-14T03:49:23;22.80;44.00
15543;DHT22;7873;52.230;12.856;2023-06-14T03:51:51;23.00;43.70
15543;DHT22;7873;52.230;12.856;2023-06-14T03:54:17;23.10;43.10
15543;DHT22;7873;52.230;12.856;2023-06-14T03:56:44;23.30;43.20
15543;DHT22;7873;52.230;12.856;2023-06-14T03:59:12;23.40;43.80
15543;DHT22;7873;52.230;12.856;2023-06-14T04:01:39;23.60;42.80
15543;DHT22;7873;52.230;12.856;2023-06-14T04:04:11;23.60;42.60
15543;DHT22;7873;52.230;12.856;2023-06-14T04:06:38;23.60;42.50
15543;DHT22;7873;52.230;12.856;2023-06-14T04:09:06;23.60;42.60
15543;DHT22;7873;52.230;12.856;2023-06-14T04:11:33;23.50;43.00
15543;DHT22;7873;52.230;12.856;2023-06-14T04:14:01;23.60;42.80
15543;DHT22;7873;52.230;12.856;2023-06-14T04:16:30;23.70;42.60
15543;DHT22;7873;52.230;12.856;2023-06-14T04:18:57;23.70;42.50
15543;DHT22;7873;52.230;12.856;2023-06-14T04:21:23;23.70;42.40
15543;DHT22;7873;52.230;12.856;2023-06-14T04:23:51;23.80;42.30
15543;DHT22;7873;52.230;12.856;2023-06-14T04:26:20;23.90;42.30
15543;DHT22;7873;52.230;12.856;2023-06-14T04:28:49;23.80;42.10
15543;DHT22;7873;52.230;12.856;2023-06-14T04:31:16;23.60;42.90
15543;DHT22;7873;52.230;12.856;2023-06-14T04:33:44;23.60;42.90
15543;DHT22;7873;52.230;12.856;2023-06-14T04:36:12;23.70;42.80
15543;DHT22;7873;52.230;12.856;2023-06-14T04:38:39;23.70;42.60
15543;DHT22;7873;52.230;12.856;2023-06-14T04:41:06;23.70;42.50
15543;DHT22;7873;52.230;12.856;2023-06-14T04:43:36;23.70;42.60
15543;DHT22;7873;52.230;12.856;2023-06-14T04:46:04;23.70;42.60
15543;DHT22;7873;52.230;12.856;2023-06-14T04:48:36;23.70;42.70
15543;DHT22;7873;52.230;12.856;2023-06-14T04:51:07;23.70;43.10
15543;DHT22;7873;52.230;12.856;2023-06-14T04:53:35;23.80;43.10
15543;DHT22;7873;52.230;12.856;2023-06-14T04:56:02;23.70;43.20
15543;DHT22;7873;52.230;12.856;2023-06-14T04:58:29;23.50;43.80
15543;DHT22;7873;52.230;12.856;2023-06-14T05:00:57;23.50;43.90
15543;DHT22;7873;52.230;12.856;2023-06-14T05:03:24;23.50;43.90
15543;DHT22;7873;52.230;12.856;2023-06-14T05:05:52;23.40;44.30
15543;DHT22;7873;52.230;12.856;2023-06-14T05:08:20;23.30;44.50
15543;DHT22;7873;52.230;12.856;2023-06-14T05:10:48;23.30;44.40
15543;DHT22;7873;52.230;12.856;2023-06-14T05:13:15;23.30;44.50
15543;DHT22;7873;52.230;12.856;2023-06-14T05:15:42;23.30;44.60
15543;DHT22;7873;52.230;12.856;2023-06-14T05:18:09;23.20;44.40
15543;DHT22;7873;52.230;12.856;2023-06-14T05:20:36;23.20;44.20
15543;DHT22;7873;52.230;12.856;2023-06-14T05:23:03;23.20;44.20
15543;DHT22;7873;52.230;12.856;2023-06-14T05:25:31;23.20;44.20
15543;DHT22;7873;52.230;12.856;2023-06-14T05:27:58;23.20;44.20
15543;DHT22;7873;52.230;12.856;2023-06-14T05:30:24;23.10;44.20
15543;DHT22;7873;52.230;12.856;2023-06-14T05:32:51;23.10;44.40
15543;DHT22;7873;52.230;12.856;2023-06-14T05:35:18;23.00;44.40
15543;DHT22;7873;52.230;12.856;2023-06-14T05:37:47;23.00;44.40
15543;DHT22;7873;52.230;12.856;2023-06-14T05:40:14;23.00;44.40
15543;DHT22;7873;52.230;12.856;2023-06-14T05:42:43;23.00;44.50
15543;DHT22;7873;52.230;12.856;2023-06-14T05:45:10;23.00;44.40
15543;DHT22;7873;52.230;12.856;2023-06-14T05:47:37;23.00;44.20
15543;DHT22;7873;52.230;12.856;2023-06-14T05:50:03;23.00;44.20
15543;DHT22;7873;52.230;12.856;2023-06-14T05:52:31;23.00;44.20
15543;DHT22;7873;52.230;12.856;2023-06-14T05:54:57;23.00;44.10
15543;DHT22;7873;52.230;12.856;2023-06-14T05:57:25;23.10;44.10
15543;DHT22;7873;52.230;12.856;2023-06-14T05:59:53;23.10;44.10
15543;DHT22;7873;52.230;12.856;2023-06-14T06:02:19;23.10;44.00
15543;DHT22;7873;52.230;12.856;2023-06-14T06:04:46;23.10;44.00
15543;DHT22;7873;52.230;12.856;2023-06-14T06:07:13;23.10;44.00
15543;DHT22;7873;52.230;12.856;2023-06-14T06:09:39;23.10;43.90
15543;DHT22;7873;52.230;12.856;2023-06-14T06:12:06;23.10;43.80
15543;DHT22;7873;52.230;12.856;2023-06-14T06:14:33;23.10;43.80
15543;DHT22;7873;52.230;12.856;2023-06-14T06:17:01;23.10;43.80
15543;DHT22;7873;52.230;12.856;2023-06-14T06:19:28;23.10;43.80
15543;DHT22;7873;52.230;12.856;2023-06-14T06:21:55;23.10;43.80
15543;DHT22;7873;52.230;12.856;2023-06-14T06:24:21;23.00;43.70
15543;DHT22;7873;52.230;12.856;2023-06-14T06:26:48;23.10;43.80
15543;DHT22;7873;52.230;12.856;2023-06-14T06:29:15;23.10;43.80
15543;DHT22;7873;52.230;12.856;2023-06-14T06:31:41;23.10;43.80
15543;DHT22;7873;52.230;12.856;2023-06-14T06:34:09;23.10;43.80
15543;DHT22;7873;52.230;12.856;2023-06-14T06:36:36;23.10;43.80
15543;DHT22;7873;52.230;12.856;2023-06-14T06:39:03;23.10;43.80
15543;DHT22;7873;52.230;12.856;2023-06-14T06:41:35;23.10;43.80
15543;DHT22;7873;52.230;12.856;2023-06-14T06:44:03;23.10;43.70
15543;DHT22;7873;52.230;12.856;2023-06-14T06:46:30;23.10;43.70
15543;DHT22;7873;52.230;12.856;2023-06-14T06:48:58;23.10;43.70
15543;DHT22;7873;52.230;12.856;2023-06-14T06:51:26;23.10;43.60
15543;DHT22;7873;52.230;12.856;2023-06-14T06:53:53;23.10;43.50
15543;DHT22;7873;52.230;12.856;2023-06-14T06:56:20;23.10;43.50
15543;DHT22;7873;52.230;12.856;2023-06-14T06:58:48;23.10;43.40
15543;DHT22;7873;52.230;12.856;2023-06-14T07:01:15;23.20;43.40
15543;DHT22;7873;52.230;12.856;2023-06-14T07:03:41;23.20;43.50
15543;DHT22;7873;52.230;12.856;2023-06-14T07:06:08;23.10;43.40
15543;DHT22;7873;52.230;12.856;2023-06-14T07:08:36;23.20;43.40
15543;DHT22;7873;52.230;12.856;2023-06-14T07:11:04;23.20;43.40
15543;DHT22;7873;52.230;12.856;2023-06-14T07:13:31;23.20;43.30
15543;DHT22;7873;52.230;12.856;2023-06-14T07:15:58;23.20;43.40
15543;DHT22;7873;52.230;12.856;2023-06-14T07:18:26;23.20;43.40
15543;DHT22;7873;52.230;12.856;2023-06-14T07:20:53;23.20;43.40
15543;DHT22;7873;52.230;12.856;2023-06-14T07:23:21;23.20;43.40
15543;DHT22;7873;52.230;12.856;2023-06-14T07:25:49;23.20;43.40
15543;DHT22;7873;52.230;12.856;2023-06-14T07:28:16;23.20;43.40
15543;DHT22;7873;52.230;12.856;2023-06-14T07:30:42;23.10;43.30
15543;DHT22;7873;52.230;12.856;2023-06-14T07:33:09;23.20;43.40
15543;DHT22;7873;52.230;12.856;2023-06-14T07:35:37;23.20;43.40
15543;DHT22;7873;52.230;12.856;2023-06-14T07:38:04;23.20;43.40
15543;DHT22;7873;52.230;12.856;2023-06-14T07:40:30;23.20;43.40
15543;DHT22;7873;52.230;12.856;2023-06-14T07:42:58;23.20;43.30
15543;DHT22;7873;52.230;12.856;2023-06-14T07:45:26;23.20;43.30
15543;DHT22;7873;52.230;12.856;2023-06-14T07:47:53;23.20;43.30
15543;DHT22;7873;52.230;12.856;2023-06-14T07:50:20;23.20;43.20
15543;DHT22;7873;52.230;12.856;2023-06-14T07:52:47;23.20;43.10
15543;DHT22;7873;52.230;12.856;2023-06-14T07:55:14;23.30;43.10
15543;DHT22;7873;52.230;12.856;2023-06-14T07:57:41;23.30;43.00
15543;DHT22;7873;52.230;12.856;2023-06-14T08:00:11;23.30;43.00
15543;DHT22;7873;52.230;12.856;2023-06-14T08:02:40;23.30;43.00
15543;DHT22;7873;52.230;12.856;2023-06-14T08:05:08;23.30;43.00
15543;DHT22;7873;52.230;12.856;2023-06-14T08:07:36;23.30;43.00
15543;DHT22;7873;52.230;12.856;2023-06-14T08:10:03;23.30;43.10
15543;DHT22;7873;52.230;12.856;2023-06-14T08:12:30;23.20;43.10
15543;DHT22;7873;52.230;12.856;2023-06-14T08:14:56;23.30;43.10
15543;DHT22;7873;52.230;12.856;2023-06-14T08:17:24;23.30;43.00
15543;DHT22;7873;52.230;12.856;2023-06-14T08:19:51;23.30;43.00
15543;DHT22;7873;52.230;12.856;2023-06-14T08:22:20;23.30;42.90
15543;DHT22;7873;52.230;12.856;2023-06-14T08:24:47;23.30;43.00
15543;DHT22;7873;52.230;12.856;2023-06-14T08:27:13;23.30;42.90
15543;DHT22;7873;52.230;12.856;2023-06-14T08:29:40;23.30;42.90
15543;DHT22;7873;52.230;12.856;2023-06-14T08:32:07;23.40;42.90
15543;DHT22;7873;52.230;12.856;2023-06-14T08:34:35;23.40;42.80
15543;DHT22;7873;52.230;12.856;2023-06-14T08:37:02;23.40;42.80
15543;DHT22;7873;52.230;12.856;2023-06-14T08:39:29;23.30;42.80
15543;DHT22;7873;52.230;12.856;2023-06-14T08:41:56;23.30;42.90
15543;DHT22;7873;52.230;12.856;2023-06-14T08:44:23;23.30;42.90
15543;DHT22;7873;52.230;12.856;2023-06-14T08:46:50;23.30;42.90
15543;DHT22;7873;52.230;12.856;2023-06-14T08:49:18;23.40;42.90
15543;DHT22;7873;52.230;12.856;2023-06-14T08:51:48;23.30;42.90
15543;DHT22;7873;52.230;12.856;2023-06-14T08:54:18;23.40;43.00
15543;DHT22;7873;52.230;12.856;2023-06-14T08:56:46;23.30;42.90
15543;DHT22;7873;52.230;12.856;2023-06-14T08:59:13;23.40;43.00
15543;DHT22;7873;52.230;12.856;2023-06-14T09:01:40;23.30;43.00
15543;DHT22;7873;52.230;12.856;2023-06-14T09:04:07;23.30;43.00
15543;DHT22;7873;52.230;12.856;2023-06-14T09:06:34;23.40;43.00
15543;DHT22;7873;52.230;12.856;2023-06-14T09:09:03;23.30;42.90
15543;DHT22;7873;52.230;12.856;2023-06-14T09:11:30;23.40;43.00
15543;DHT22;7873;52.230;12.856;2023-06-14T09:13:57;23.40;42.80
15543;DHT22;7873;52.230;12.856;2023-06-14T09:16:23;23.40;42.80
15543;DHT22;7873;52.230;12.856;2023-06-14T09:18:51;23.50;42.70
15543;DHT22;7873;52.230;12.856;2023-06-14T09:21:18;23.50;42.80
15543;DHT22;7873;52.230;12.856;2023-06-14T09:23:46;23.50;42.70
15543;DHT22;7873;52.230;12.856;2023-06-14T09:26:16;23.50;42.70
15543;DHT22;7873;52.230;12.856;2023-06-14T09:28:45;23.50;42.60
15543;DHT22;7873;52.230;12.856;2023-06-14T09:31:14;23.50;42.60
15543;DHT22;7873;52.230;12.856;2023-06-14T09:33:42;23.50;42.70
15543;DHT22;7873;52.230;12.856;2023-06-14T09:36:14;23.50;42.70
15543;DHT22;7873;52.230;12.856;2023-06-14T09:38:42;23.50;42.80
15543;DHT22;7873;52.230;12.856;2023-06-14T09:41:19;23.50;42.80
15543;DHT22;7873;52.230;12.856;2023-06-14T09:43:46;23.50;42.70
15543;DHT22;7873;52.230;12.856;2023-06-14T09:46:14;23.50;42.80
15543;DHT22;7873;52.230;12.856;2023-06-14T09:48:42;23.50;42.70
15543;DHT22;7873;52.230;12.856;2023-06-14T09:51:09;23.50;42.80
15543;DHT22;7873;52.230;12.856;2023-06-14T09:53:37;23.50;42.80
15543;DHT22;7873;52.230;12.856;2023-06-14T09:56:04;23.50;42.80
15543;DHT22;7873;52.230;12.856;2023-06-14T09:58:33;23.50;42.80
15543;DHT22;7873;52.230;12.856;2023-06-14T10:01:03;23.50;42.60
15543;DHT22;7873;52.230;12.856;2023-06-14T10:03:33;23.60;42.60
15543;DHT22;7873;52.230;12.856;2023-06-14T10:06:01;23.70;42.40
15543;DHT22;7873;52.230;12.856;2023-06-14T10:08:30;23.70;42.30
15543;DHT22;7873;52.230;12.856;2023-06-14T10:10:59;23.80;42.20
15543;DHT22;7873;52.230;12.856;2023-06-14T10:13:26;23.80;42.10
15543;DHT22;7873;52.230;12.856;2023-06-14T10:15:57;23.80;42.10
15543;DHT22;7873;52.230;12.856;2023-06-14T10:18:28;23.80;42.10
15543;DHT22;7873;52.230;12.856;2023-06-14T10:21:02;23.80;42.10
15543;DHT22;7873;52.230;12.856;2023-06-14T10:23:35;23.80;42.20
15543;DHT22;7873;52.230;12.856;2023-06-14T10:26:04;23.80;42.30
15543;DHT22;7873;52.230;12.856;2023-06-14T10:28:31;23.80;42.30
15543;DHT22;7873;52.230;12.856;2023-06-14T10:31:02;23.80;42.30
15543;DHT22;7873;52.230;12.856;2023-06-14T10:33:30;23.90;42.30
15543;DHT22;7873;52.230;12.856;2023-06-14T10:36:07;23.80;42.30
15543;DHT22;7873;52.230;12.856;2023-06-14T10:38:35;23.80;42.30
15543;DHT22;7873;52.230;12.856;2023-06-14T10:41:02;23.80;42.30
15543;DHT22;7873;52.230;12.856;2023-06-14T10:43:30;23.80;42.30
15543;DHT22;7873;52.230;12.856;2023-06-14T10:46:17;23.80;42.30
15543;DHT22;7873;52.230;12.856;2023-06-14T10:48:48;23.90;42.30
15543;DHT22;7873;52.230;12.856;2023-06-14T10:51:15;23.80;42.20
15543;DHT22;7873;52.230;12.856;2023-06-14T10:53:45;23.80;42.20
15543;DHT22;7873;52.230;12.856;2023-06-14T10:56:23;23.80;42.20
15543;DHT22;7873;52.230;12.856;2023-06-14T10:58:51;23.90;42.30
15543;DHT22;7873;52.230;12.856;2023-06-14T11:01:23;23.90;42.30
15543;DHT22;7873;52.230;12.856;2023-06-14T11:04:01;23.90;42.40
15543;DHT22;7873;52.230;12.856;2023-06-14T11:06:45;23.80;42.40
15543;DHT22;7873;52.230;12.856;2023-06-14T11:09:20;23.80;42.50
15543;DHT22;7873;52.230;12.856;2023-06-14T11:12:01;23.80;42.50
15543;DHT22;7873;52.230;12.856;2023-06-14T11:14:29;23.80;42.60
15543;DHT22;7873;52.230;12.856;2023-06-14T11:16:57;23.80;42.60
15543;DHT22;7873;52.230;12.856;2023-06-14T11:19:25;23.70;42.60
15543;DHT22;7873;52.230;12.856;2023-06-14T11:21:54;23.80;42.60
15543;DHT22;7873;52.230;12.856;2023-06-14T11:24:20;23.80;42.60
15543;DHT22;7873;52.230;12.856;2023-06-14T11:26:47;23.80;42.60
15543;DHT22;7873;52.230;12.856;2023-06-14T11:29:14;23.80;42.60
15543;DHT22;7873;52.230;12.856;2023-06-14T11:31:43;23.80;42.60
15543;DHT22;7873;52.230;12.856;2023-06-14T11:34:12;23.80;42.50
15543;DHT22;7873;52.230;12.856;2023-06-14T11:36:39;23.80;42.50
15543;DHT22;7873;52.230;12.856;2023-06-14T11:39:07;23.80;42.40
15543;DHT22;7873;52.230;12.856;2023-06-14T11:41:36;23.80;42.40
15543;DHT22;7873;52.230;12.856;2023-06-14T11:44:05;23.80;42.50
15543;DHT22;7873;52.230;12.856;2023-06-14T11:46:32;23.80;42.60
15543;DHT22;7873;52.230;12.856;2023-06-14T11:48:59;23.80;42.60
15543;DHT22;7873;52.230;12.856;2023-06-14T11:51:29;23.80;42.60
15543;DHT22;7873;52.230;12.856;2023-06-14T11:53:56;23.80;42.70
15543;DHT22;7873;52.230;12.856;2023-06-14T11:56:23;23.80;42.70
15543;DHT22;7873;52.230;12.856;2023-06-14T11:58:52;23.80;42.70
15543;DHT22;7873;52.230;12.856;2023-06-14T12:01:21;23.80;42.70
15543;DHT22;7873;52.230;12.856;2023-06-14T12:03:48;23.80;42.70
15543;DHT22;7873;52.230;12.856;2023-06-14T12:06:15;23.80;42.70
15543;DHT22;7873;52.230;12.856;2023-06-14T12:08:45;23.80;42.70
15543;DHT22;7873;52.230;12.856;2023-06-14T12:11:14;23.80;42.70
15543;DHT22;7873;52.230;12.856;2023-06-14T12:13:42;23.80;42.60
15543;DHT22;7873;52.230;12.856;2023-06-14T12:16:10;23.80;42.70
15543;DHT22;7873;52.230;12.856;2023-06-14T12:18:38;23.90;42.60
15543;DHT22;7873;52.230;12.856;2023-06-14T12:21:06;23.90;42.60
15543;DHT22;7873;52.230;12.856;2023-06-14T12:23:38;23.90;42.60
15543;DHT22;7873;52.230;12.856;2023-06-14T12:26:07;23.90;42.60
15543;DHT22;7873;52.230;12.856;2023-06-14T12:28:34;23.90;42.60
15543;DHT22;7873;52.230;12.856;2023-06-14T12:31:01;23.80;42.60
15543;DHT22;7873;52.230;12.856;2023-06-14T12:33:28;23.90;42.60
15543;DHT22;7873;52.230;12.856;2023-06-14T12:35:55;23.90;42.70
15543;DHT22;7873;52.230;12.856;2023-06-14T12:38:23;23.80;42.70
15543;DHT22;7873;52.230;12.856;2023-06-14T12:40:49;23.80;42.90
15543;DHT22;7873;52.230;12.856;2023-06-14T12:43:17;23.70;42.90
15543;DHT22;7873;52.230;12.856;2023-06-14T12:45:44;23.70;43.10
15543;DHT22;7873;52.230;12.856;2023-06-14T12:48:11;23.70;43.10
15543;DHT22;7873;52.230;12.856;2023-06-14T12:50:37;23.70;43.10
15543;DHT22;7873;52.230;12.856;2023-06-14T12:53:05;23.70;43.20
15543;DHT22;7873;52.230;12.856;2023-06-14T12:55:31;23.70;43.30
15543;DHT22;7873;52.230;12.856;2023-06-14T12:57:58;23.70;43.40
15543;DHT22;7873;52.230;12.856;2023-06-14T13:00:26;23.70;43.40
15543;DHT22;7873;52.230;12.856;2023-06-14T13:02:55;23.70;43.40
15543;DHT22;7873;52.230;12.856;2023-06-14T13:05:22;23.70;43.40
15543;DHT22;7873;52.230;12.856;2023-06-14T13:07:48;23.70;43.50
15543;DHT22;7873;52.230;12.856;2023-06-14T13:10:15;23.70;43.50
15543;DHT22;7873;52.230;12.856;2023-06-14T13:12:42;23.70;43.40
15543;DHT22;7873;52.230;12.856;2023-06-14T13:15:10;23.70;43.40
15543;DHT22;7873;52.230;12.856;2023-06-14T13:17:38;23.70;43.40
15543;DHT22;7873;52.230;12.856;2023-06-14T13:20:05;23.70;43.40
15543;DHT22;7873;52.230;12.856;2023-06-14T13:22:33;23.70;43.50
15543;DHT22;7873;52.230;12.856;2023-06-14T13:25:00;23.70;43.50
15543;DHT22;7873;52.230;12.856;2023-06-14T13:27:27;23.70;43.50
15543;DHT22;7873;52.230;12.856;2023-06-14T13:29:54;23.60;43.60
15543;DHT22;7873;52.230;12.856;2023-06-14T13:32:22;23.70;43.70
15543;DHT22;7873;52.230;12.856;2023-06-14T13:34:51;23.60;43.70
15543;DHT22;7873;52.230;12.856;2023-06-14T13:37:17;23.60;43.80
15543;DHT22;7873;52.230;12.856;2023-06-14T13:39:44;23.60;43.90
15543;DHT22;7873;52.230;12.856;2023-06-14T13:42:10;23.60;44.00
15543;DHT22;7873;52.230;12.856;2023-06-14T13:44:37;23.60;44.00
15543;DHT22;7873;52.230;12.856;2023-06-14T13:47:04;23.60;44.00
15543;DHT22;7873;52.230;12.856;2023-06-14T13:49:32;23.60;44.00
15543;DHT22;7873;52.230;12.856;2023-06-14T13:52:01;23.60;44.00
15543;DHT22;7873;52.230;12.856;2023-06-14T13:54:29;23.60;44.00
15543;DHT22;7873;52.230;12.856;2023-06-14T13:56:55;23.60;44.00
15543;DHT22;7873;52.230;12.856;2023-06-14T13:59:22;23.60;44.00
15543;DHT22;7873;52.230;12.856;2023-06-14T14:01:48;23.60;44.00
15543;DHT22;7873;52.230;12.856;2023-06-14T14:04:15;23.60;44.00
15543;DHT22;7873;52.230;12.856;2023-06-14T14:06:42;23.60;44.00
15543;DHT22;7873;52.230;12.856;2023-06-14T14:09:10;23.60;44.00
15543;DHT22;7873;52.230;12.856;2023-06-14T14:11:38;23.60;43.80
15543;DHT22;7873;52.230;12.856;2023-06-14T14:14:05;23.60;43.80
15543;DHT22;7873;52.230;12.856;2023-06-14T14:16:32;23.60;43.80
15543;DHT22;7873;52.230;12.856;2023-06-14T14:18:59;23.60;43.80
15543;DHT22;7873;52.230;12.856;2023-06-14T14:21:27;23.70;43.80
15543;DHT22;7873;52.230;12.856;2023-06-14T14:23:53;23.60;43.80
15543;DHT22;7873;52.230;12.856;2023-06-14T14:26:21;23.70;43.80
15543;DHT22;7873;52.230;12.856;2023-06-14T14:28:48;23.60;44.00
15543;DHT22;7873;52.230;12.856;2023-06-14T14:31:15;23.60;44.00
15543;DHT22;7873;52.230;12.856;2023-06-14T14:33:42;23.50;44.20
15543;DHT22;7873;52.230;12.856;2023-06-14T14:36:09;23.50;44.30
15543;DHT22;7873;52.230;12.856;2023-06-14T14:38:36;23.50;44.60
15543;DHT22;7873;52.230;12.856;2023-06-14T14:41:03;23.50;44.50
15543;DHT22;7873;52.230;12.856;2023-06-14T14:43:31;23.60;44.20
15543;DHT22;7873;52.230;12.856;2023-06-14T14:45:58;23.60;44.10
15543;DHT22;7873;52.230;12.856;2023-06-14T14:48:25;23.70;44.10
15543;DHT22;7873;52.230;12.856;2023-06-14T14:50:52;23.60;44.10
15543;DHT22;7873;52.230;12.856;2023-06-14T14:53:18;23.50;43.00
15543;DHT22;7873;52.230;12.856;2023-06-14T14:55:45;23.40;42.90
15543;DHT22;7873;52.230;12.856;2023-06-14T14:58:12;23.30;42.80
15543;DHT22;7873;52.230;12.856;2023-06-14T15:00:43;23.20;43.80
15543;DHT22;7873;52.230;12.856;2023-06-14T15:03:10;23.30;43.90
15543;DHT22;7873;52.230;12.856;2023-06-14T15:05:37;23.30;43.90
15543;DHT22;7873;52.230;12.856;2023-06-14T15:08:03;23.30;44.00
15543;DHT22;7873;52.230;12.856;2023-06-14T15:10:35;23.40;44.50
15543;DHT22;7873;52.230;12.856;2023-06-14T15:13:02;23.40;43.90
15543;DHT22;7873;52.230;12.856;2023-06-14T15:15:29;23.30;43.80
15543;DHT22;7873;52.230;12.856;2023-06-14T15:17:57;23.40;43.90
15543;DHT22;7873;52.230;12.856;2023-06-14T15:20:25;23.40;44.60
15543;DHT22;7873;52.230;12.856;2023-06-14T15:22:52;23.50;43.80
15543;DHT22;7873;52.230;12.856;2023-06-14T15:25:18;23.50;43.60
15543;DHT22;7873;52.230;12.856;2023-06-14T15:27:46;23.60;43.40
15543;DHT22;7873;52.230;12.856;2023-06-14T15:30:13;23.60;43.40
15543;DHT22;7873;52.230;12.856;2023-06-14T15:32:40;23.60;42.40